createdAt,value
2018-06-17T00:00:23.793Z,5.28
2018-06-17T00:02:55.151Z,5.12
2018-06-17T00:05:26.515Z,4.45
2018-06-17T00:07:58.451Z,5.12
2018-06-17T00:10:30.043Z,4.67
2018-06-17T00:13:01.423Z,4.95
2018-06-17T00:15:32.968Z,5.00
2018-06-17T00:18:04.351Z,5.10
2018-06-17T00:20:36.196Z,5.37
2018-06-17T00:23:07.535Z,5.50
2018-06-17T00:25:38.760Z,5.12
2018-06-17T00:28:09.997Z,5.08
2018-06-17T00:30:41.353Z,5.10
2018-06-17T00:33:12.859Z,5.00
2018-06-17T00:35:44.595Z,5.00
2018-06-17T00:38:15.866Z,5.42
2018-06-17T00:40:46.809Z,4.97
2018-06-17T00:43:18.236Z,4.58
2018-06-17T00:45:49.535Z,5.55
2018-06-17T00:48:20.940Z,5.87
2018-06-17T00:50:51.951Z,5.25
2018-06-17T00:53:23.299Z,5.70
2018-06-17T00:55:54.724Z,5.33
2018-06-17T00:58:26.002Z,5.83
2018-06-17T01:00:57.462Z,6.12
2018-06-17T01:03:29.709Z,5.80
2018-06-17T01:06:01.249Z,6.07
2018-06-17T01:08:33.028Z,5.97
2018-06-17T01:11:05.527Z,6.30
2018-06-17T01:13:37.056Z,6.33
2018-06-17T01:16:08.519Z,6.50
2018-06-17T01:18:41.079Z,6.50
2018-06-17T01:21:12.958Z,6.50
2018-06-17T01:23:45.107Z,6.80
2018-06-17T01:26:16.255Z,6.73
2018-06-17T01:28:47.804Z,6.40
2018-06-17T01:31:19.183Z,7.90
2018-06-17T01:33:50.497Z,7.08
2018-06-17T01:36:22.115Z,7.40
2018-06-17T01:38:53.969Z,7.77
2018-06-17T01:41:25.507Z,7.22
2018-06-17T01:43:57.051Z,7.13
2018-06-17T01:46:28.886Z,7.00
2018-06-17T01:49:00.159Z,6.93
2018-06-17T01:51:31.498Z,7.00
2018-06-17T01:54:02.950Z,7.87
2018-06-17T01:56:34.279Z,7.23
2018-06-17T01:59:05.659Z,7.67
2018-06-17T02:01:37.791Z,8.00
2018-06-17T02:04:13.919Z,7.70
2018-06-17T02:06:49.918Z,6.73
2018-06-17T02:09:26.252Z,7.40
2018-06-17T02:12:02.720Z,6.60
2018-06-17T02:14:39.035Z,6.80
2018-06-17T02:17:10.356Z,6.97
2018-06-17T02:19:41.648Z,6.90
2018-06-17T02:22:13.587Z,7.10
2018-06-17T02:24:45.016Z,7.10
2018-06-17T02:27:16.191Z,6.83
2018-06-17T02:29:47.536Z,7.20
2018-06-17T02:32:18.658Z,6.67
2018-06-17T02:34:49.842Z,7.63
2018-06-17T02:37:20.974Z,6.87
2018-06-17T02:39:52.182Z,7.20
2018-06-17T02:42:23.690Z,7.37
2018-06-17T02:45:00.313Z,6.97
2018-06-17T02:47:36.589Z,6.90
2018-06-17T02:50:13.649Z,7.20
2018-06-17T02:52:50.183Z,7.10
2018-06-17T02:55:21.767Z,6.93
2018-06-17T02:57:53.204Z,6.87
2018-06-17T03:00:24.895Z,6.30
2018-06-17T03:02:57.007Z,6.20
2018-06-17T03:05:28.712Z,6.40
2018-06-17T03:08:00.240Z,6.00
2018-06-17T03:10:31.888Z,5.73
2018-06-17T03:13:03.168Z,6.10
2018-06-17T03:15:34.649Z,6.17
2018-06-17T03:18:05.966Z,6.63
2018-06-17T03:20:37.141Z,6.73
2018-06-17T03:23:08.364Z,7.03
2018-06-17T03:25:44.652Z,6.67
2018-06-17T03:28:21.178Z,6.90
2018-06-17T03:30:57.661Z,6.47
2018-06-17T03:33:33.824Z,6.10
2018-06-17T03:36:09.527Z,6.23
2018-06-17T03:38:42.268Z,5.87
2018-06-17T03:41:13.651Z,6.23
2018-06-17T03:43:44.833Z,6.03
2018-06-17T03:46:16.183Z,6.33
2018-06-17T03:48:47.516Z,6.50
2018-06-17T03:51:20.206Z,6.15
2018-06-17T03:53:51.940Z,6.13
2018-06-17T03:56:23.479Z,5.40
2018-06-17T03:58:54.767Z,6.03
2018-06-17T04:01:26.634Z,6.08
2018-06-17T04:03:58.043Z,5.97
2018-06-17T04:06:30.224Z,5.55
2018-06-17T04:09:01.424Z,5.60
2018-06-17T04:11:32.710Z,5.83
2018-06-17T04:14:04.021Z,5.78
2018-06-17T04:16:35.164Z,5.37
2018-06-17T04:19:06.237Z,5.53
2018-06-17T04:21:37.471Z,5.47
2018-06-17T04:24:08.744Z,5.47
2018-06-17T04:26:40.402Z,6.35
2018-06-17T04:29:11.960Z,6.30
2018-06-17T04:31:44.173Z,5.67
2018-06-17T04:34:16.370Z,6.00
2018-06-17T04:36:47.570Z,5.60
2018-06-17T04:39:18.859Z,5.90
2018-06-17T04:41:50.400Z,6.25
2018-06-17T04:44:22.174Z,5.90
2018-06-17T04:46:53.587Z,5.53
2018-06-17T04:49:24.991Z,5.70
2018-06-17T04:51:56.576Z,5.47
2018-06-17T04:54:27.817Z,5.70
2018-06-17T04:56:59.258Z,5.80
2018-06-17T04:59:30.667Z,5.40
2018-06-17T05:02:01.884Z,5.80
2018-06-17T05:04:34.031Z,5.70
2018-06-17T05:07:05.924Z,5.35
2018-06-17T05:09:37.111Z,5.10
2018-06-17T05:12:08.465Z,5.80
2018-06-17T05:14:39.764Z,5.60
2018-06-17T05:17:11.552Z,10.08
2018-06-17T05:19:42.630Z,8.58
2018-06-17T05:22:13.952Z,8.03
2018-06-17T05:24:45.341Z,6.05
2018-06-17T05:27:16.527Z,7.80
2018-06-17T05:29:47.761Z,12.05
2018-06-17T05:32:19.003Z,10.75
2018-06-17T05:34:50.355Z,7.90
2018-06-17T05:37:21.817Z,7.50
2018-06-17T05:39:53.035Z,10.15
2018-06-17T05:42:25.068Z,6.40
2018-06-17T05:44:56.193Z,6.50
2018-06-17T05:47:27.492Z,8.20
2018-06-17T05:49:58.888Z,6.53
2018-06-17T05:52:30.429Z,6.47
2018-06-17T05:55:01.520Z,6.35
2018-06-17T05:57:33.032Z,6.62
2018-06-17T06:00:04.435Z,6.03
2018-06-17T06:02:35.955Z,5.90
2018-06-17T06:05:08.087Z,5.87
2018-06-17T06:07:39.359Z,5.83
2018-06-17T06:10:10.958Z,5.30
2018-06-17T06:12:42.767Z,5.20
2018-06-17T06:15:14.604Z,4.92
2018-06-17T06:17:46.182Z,5.55
2018-06-17T06:20:17.488Z,5.58
2018-06-17T06:22:49.038Z,5.95
2018-06-17T06:25:20.469Z,5.70
2018-06-17T06:27:51.290Z,5.80
2018-06-17T06:30:22.892Z,5.58
2018-06-17T06:32:54.507Z,5.62
2018-06-17T06:35:25.613Z,5.67
2018-06-17T06:37:56.943Z,5.90
2018-06-17T06:40:28.512Z,5.78
2018-06-17T06:43:00.102Z,6.42
2018-06-17T06:45:31.530Z,6.00
2018-06-17T06:48:02.888Z,5.53
2018-06-17T06:50:34.181Z,6.37
2018-06-17T06:53:05.662Z,5.83
2018-06-17T06:55:37.526Z,6.28
2018-06-17T06:58:09.554Z,5.35
2018-06-17T07:00:41.029Z,5.85
2018-06-17T07:04:31.217Z,5.97
2018-06-17T07:07:18.628Z,6.15
2018-06-17T07:10:28.824Z,6.03
2018-06-17T07:13:00.001Z,6.00
2018-06-17T07:15:47.355Z,6.17
2018-06-17T07:18:33.030Z,5.62
2018-06-17T07:21:05.242Z,6.15
2018-06-17T07:23:36.758Z,6.05
2018-06-17T07:26:39.219Z,6.72
2018-06-17T07:29:27.888Z,5.83
2018-06-17T07:31:59.250Z,6.70
2018-06-17T07:34:30.758Z,6.17
2018-06-17T07:37:02.535Z,6.22
2018-06-17T07:41:46.567Z,6.00
2018-06-17T07:44:18.084Z,6.30
2018-06-17T07:46:49.819Z,6.10
2018-06-17T07:49:41.151Z,5.65
2018-06-17T07:52:29.538Z,5.75
2018-06-17T07:55:01.055Z,5.40
2018-06-17T07:57:33.755Z,6.05
2018-06-17T08:00:04.936Z,6.10
2018-06-17T08:02:36.547Z,5.67
2018-06-17T08:05:08.010Z,6.08
2018-06-17T08:07:40.012Z,5.97
2018-06-17T08:10:11.356Z,5.65
2018-06-17T08:12:42.764Z,5.70
2018-06-17T08:15:14.479Z,5.33
2018-06-17T08:17:45.689Z,5.70
2018-06-17T08:20:16.999Z,5.42
2018-06-17T08:22:48.353Z,7.58
2018-06-17T08:25:20.615Z,6.17
2018-06-17T08:27:51.987Z,5.67
2018-06-17T08:30:23.424Z,5.28
2018-06-17T08:32:54.977Z,5.75
2018-06-17T08:35:26.203Z,5.22
2018-06-17T08:37:57.387Z,5.58
2018-06-17T08:40:28.508Z,5.87
2018-06-17T08:42:59.851Z,5.40
2018-06-17T08:45:31.626Z,5.72
2018-06-17T08:48:03.089Z,5.60
2018-06-17T08:50:34.533Z,5.65
2018-06-17T08:53:06.413Z,5.22
2018-06-17T08:55:37.811Z,5.17
2018-06-17T08:58:09.371Z,5.25
2018-06-17T09:00:40.977Z,5.40
2018-06-17T09:03:12.488Z,5.62
2018-06-17T09:05:43.735Z,5.50
2018-06-17T09:08:15.191Z,5.87
2018-06-17T09:10:46.577Z,5.80
2018-06-17T09:13:17.876Z,5.45
2018-06-17T09:15:49.273Z,5.22
2018-06-17T09:18:21.193Z,5.37
2018-06-17T09:20:52.654Z,4.97
2018-06-17T09:23:24.162Z,5.05
2018-06-17T09:25:55.653Z,5.75
2018-06-17T09:28:27.087Z,5.67
2018-06-17T09:30:58.724Z,5.92
2018-06-17T09:33:30.009Z,4.72
2018-06-17T09:36:01.562Z,5.03
2018-06-17T09:38:33.192Z,4.65
2018-06-17T09:41:05.131Z,5.10
2018-06-17T09:43:36.519Z,4.60
2018-06-17T09:46:08.516Z,4.60
2018-06-17T09:48:40.344Z,4.87
2018-06-17T09:51:12.062Z,5.17
2018-06-17T09:53:43.789Z,4.80
2018-06-17T09:56:15.391Z,4.87
2018-06-17T09:58:46.707Z,4.90
2018-06-17T10:01:18.096Z,5.08
2018-06-17T10:03:49.539Z,5.40
2018-06-17T10:06:20.971Z,4.45
2018-06-17T10:08:52.855Z,4.72
2018-06-17T10:11:24.279Z,4.60
2018-06-17T10:13:56.288Z,4.90
2018-06-17T10:16:27.729Z,4.83
2018-06-17T10:18:59.507Z,5.50
2018-06-17T10:21:31.022Z,5.40
2018-06-17T10:24:02.485Z,5.30
2018-06-17T10:26:33.682Z,5.15
2018-06-17T10:29:05.156Z,5.42
2018-06-17T10:31:36.624Z,4.85
2018-06-17T10:34:07.997Z,5.50
2018-06-17T10:36:39.534Z,5.40
2018-06-17T10:39:10.795Z,5.10
2018-06-17T10:41:42.111Z,5.62
2018-06-17T10:44:13.504Z,5.05
2018-06-17T10:46:44.884Z,4.70
2018-06-17T10:49:16.572Z,4.40
2018-06-17T10:51:48.175Z,3.33
2018-06-17T10:54:19.509Z,3.85
2018-06-17T10:56:50.754Z,3.92
2018-06-17T10:59:22.629Z,3.75
2018-06-17T11:01:54.015Z,3.83
2018-06-17T11:04:25.499Z,3.90
2018-06-17T11:06:57.376Z,4.42
2018-06-17T11:09:29.318Z,3.98
2018-06-17T11:12:00.603Z,4.30
2018-06-17T11:14:32.037Z,3.83
2018-06-17T11:17:03.692Z,4.15
2018-06-17T11:19:35.140Z,4.03
2018-06-17T11:22:07.296Z,3.50
2018-06-17T11:24:39.204Z,3.30
2018-06-17T11:27:10.582Z,3.60
2018-06-17T11:29:42.773Z,3.37
2018-06-17T11:32:14.432Z,3.30
2018-06-17T11:34:45.948Z,3.50
2018-06-17T11:37:17.415Z,3.20
2018-06-17T11:39:49.548Z,3.47
2018-06-17T11:42:21.847Z,3.75
2018-06-17T11:44:53.273Z,3.55
2018-06-17T11:47:24.835Z,2.83
2018-06-17T11:49:56.406Z,2.80
2018-06-17T11:52:27.801Z,2.92
2018-06-17T11:54:59.289Z,2.60
2018-06-17T11:57:30.759Z,2.50
2018-06-17T12:00:02.436Z,2.55
2018-06-17T12:02:33.822Z,2.70
2018-06-17T12:05:05.237Z,2.75
2018-06-17T12:07:36.913Z,2.80
2018-06-17T12:10:08.403Z,2.87
2018-06-17T12:12:39.791Z,2.72
2018-06-17T12:15:10.921Z,3.00
2018-06-17T12:17:42.424Z,3.25
2018-06-17T12:20:13.703Z,3.98
2018-06-17T12:22:45.068Z,2.83
2018-06-17T12:25:16.593Z,3.40
2018-06-17T12:27:47.981Z,3.33
2018-06-17T12:30:19.837Z,2.80
2018-06-17T12:32:50.992Z,2.80
2018-06-17T12:35:22.706Z,2.90
2018-06-17T12:37:54.288Z,3.80
2018-06-17T12:40:25.671Z,2.77
2018-06-17T12:42:56.931Z,3.30
2018-06-17T12:45:29.147Z,3.27
2018-06-17T12:48:01.883Z,3.65
2018-06-17T12:50:33.400Z,3.30
2018-06-17T12:53:04.785Z,4.22
2018-06-17T12:55:36.222Z,4.08
2018-06-17T12:58:07.906Z,3.50
2018-06-17T13:00:39.922Z,3.40
2018-06-17T13:03:11.199Z,3.50
2018-06-17T13:05:42.817Z,4.03
2018-06-17T13:08:14.356Z,4.05
2018-06-17T13:10:45.777Z,3.62
2018-06-17T13:13:17.804Z,3.90
2018-06-17T13:15:49.098Z,3.65
2018-06-17T13:18:20.649Z,3.60
2018-06-17T13:20:52.212Z,3.62
2018-06-17T13:23:24.361Z,3.45
2018-06-17T13:25:55.717Z,4.42
2018-06-17T13:28:27.250Z,3.37
2018-06-17T13:30:58.779Z,3.60
2018-06-17T13:33:30.632Z,3.33
2018-06-17T13:36:02.184Z,3.30
2018-06-17T13:38:33.824Z,3.25
2018-06-17T13:41:05.508Z,3.35
2018-06-17T13:43:36.818Z,3.12
2018-06-17T13:46:09.739Z,3.85
2018-06-17T13:48:41.070Z,3.42
2018-06-17T13:51:12.427Z,3.67
2018-06-17T13:53:43.525Z,3.60
2018-06-17T13:56:15.229Z,4.50
2018-06-17T13:58:47.034Z,4.20
2018-06-17T14:01:18.786Z,3.98
2018-06-17T14:03:50.104Z,3.50
2018-06-17T14:06:21.612Z,3.20
2018-06-17T14:08:52.826Z,3.50
2018-06-17T14:11:24.513Z,4.35
2018-06-17T14:13:56.452Z,3.52
2018-06-17T14:16:27.715Z,3.77
2018-06-17T14:19:00.821Z,3.87
2018-06-17T14:21:32.629Z,3.87
2018-06-17T14:24:04.712Z,4.95
2018-06-17T14:26:36.028Z,5.42
2018-06-17T14:29:07.562Z,4.33
2018-06-17T14:31:39.472Z,4.90
2018-06-17T14:34:10.858Z,3.80
2018-06-17T14:36:42.261Z,4.20
2018-06-17T14:39:13.931Z,7.20
2018-06-17T14:41:49.304Z,7.22
2018-06-17T14:44:25.603Z,4.20
2018-06-17T14:47:02.121Z,5.10
2018-06-17T14:49:38.330Z,5.90
2018-06-17T14:52:14.949Z,5.30
2018-06-17T14:54:46.929Z,7.97
2018-06-17T14:57:18.880Z,4.65
2018-06-17T14:59:50.387Z,4.15
2018-06-17T15:02:22.406Z,3.90
2018-06-17T15:04:54.391Z,8.38
2018-06-17T15:07:25.598Z,4.97
2018-06-17T15:09:57.074Z,4.50
2018-06-17T15:12:28.766Z,5.67
2018-06-17T15:15:00.195Z,3.80
2018-06-17T15:17:31.852Z,4.55
2018-06-17T15:20:03.800Z,4.15
2018-06-17T15:22:35.077Z,10.23
2018-06-17T15:25:06.844Z,6.45
2018-06-17T15:27:38.464Z,9.58
2018-06-17T15:30:10.049Z,6.60
2018-06-17T15:32:46.523Z,5.00
2018-06-17T15:35:22.805Z,5.55
2018-06-17T15:37:59.577Z,5.33
2018-06-17T15:40:36.266Z,5.58
2018-06-17T15:43:07.507Z,4.60
2018-06-17T15:45:38.878Z,9.83
2018-06-17T15:48:10.407Z,8.75
2018-06-17T15:50:42.032Z,6.30
2018-06-17T15:53:13.595Z,5.72
2018-06-17T15:55:45.264Z,4.35
2018-06-17T15:58:16.690Z,4.37
2018-06-17T16:00:48.199Z,4.20
2018-06-17T16:03:19.520Z,4.08
2018-06-17T16:05:51.146Z,4.05
2018-06-17T16:08:23.151Z,4.17
2018-06-17T16:10:54.718Z,3.90
2018-06-17T16:13:31.537Z,3.77
2018-06-17T16:16:08.001Z,4.22
2018-06-17T16:19:46.249Z,3.92
2018-06-17T16:22:18.133Z,4.15
2018-06-17T16:24:49.687Z,3.70
2018-06-17T16:27:21.027Z,4.05
2018-06-17T16:29:52.229Z,6.65
2018-06-17T16:32:23.815Z,4.03
2018-06-17T16:34:56.396Z,3.70
2018-06-17T16:37:28.413Z,4.70
2018-06-17T16:40:00.116Z,3.90
2018-06-17T16:42:31.885Z,3.67
2018-06-17T16:45:02.833Z,3.80
2018-06-17T16:47:34.323Z,3.77
2018-06-17T16:50:05.855Z,3.92
2018-06-17T16:52:42.614Z,7.87
2018-06-17T16:55:19.133Z,7.22
2018-06-17T16:57:55.604Z,5.12
2018-06-17T17:00:26.976Z,4.12
2018-06-17T17:02:58.494Z,5.40
2018-06-17T17:05:29.955Z,5.15
2018-06-17T17:08:02.631Z,3.72
2018-06-17T17:10:34.575Z,4.05
2018-06-17T17:13:06.207Z,3.92
2018-06-17T17:15:38.343Z,5.60
2018-06-17T17:18:09.635Z,5.12
2018-06-17T17:20:40.885Z,4.53
2018-06-17T17:23:12.456Z,4.17
2018-06-17T17:25:43.700Z,4.30
2018-06-17T17:28:15.289Z,4.47
2018-06-17T17:30:50.258Z,3.80
2018-06-17T17:33:26.563Z,5.12
2018-06-17T17:36:03.136Z,6.60
2018-06-17T17:38:39.547Z,4.80
2018-06-17T17:41:10.864Z,5.95
2018-06-17T17:43:42.447Z,4.70
2018-06-17T17:46:19.567Z,5.22
2018-06-17T17:48:51.464Z,4.42
2018-06-17T17:51:22.887Z,5.08
2018-06-17T17:53:54.437Z,4.30
2018-06-17T17:56:25.763Z,4.78
2018-06-17T17:58:57.079Z,4.53
2018-06-17T18:01:27.922Z,4.60
2018-06-17T18:03:59.310Z,4.28
2018-06-17T18:06:31.092Z,4.25
2018-06-17T18:09:02.731Z,4.30
2018-06-17T18:11:34.195Z,4.30
2018-06-17T18:14:05.621Z,4.65
2018-06-17T18:16:37.174Z,5.47
2018-06-17T18:19:08.818Z,6.22
2018-06-17T18:21:40.909Z,4.72
2018-06-17T18:24:12.177Z,4.65
2018-06-17T18:26:48.528Z,5.37
2018-06-17T18:29:24.887Z,5.33
2018-06-17T18:32:02.707Z,4.30
2018-06-17T18:34:39.562Z,4.87
2018-06-17T18:37:11.240Z,4.33
2018-06-17T18:39:43.144Z,5.03
2018-06-17T18:42:14.619Z,4.85
2018-06-17T18:44:46.393Z,4.28
2018-06-17T18:47:17.853Z,4.50
2018-06-17T18:49:49.068Z,4.85
2018-06-17T18:52:20.582Z,4.60
2018-06-17T18:54:51.632Z,4.90
2018-06-17T18:57:23.424Z,6.22
2018-06-17T18:59:54.927Z,7.90
2018-06-17T19:02:26.424Z,7.67
2018-06-17T19:04:58.049Z,6.12
2018-06-17T19:07:29.335Z,5.75
2018-06-17T19:10:05.589Z,5.95
2018-06-17T19:12:42.241Z,5.78
2018-06-17T19:15:18.935Z,5.47
2018-06-17T19:17:55.262Z,5.03
2018-06-17T19:20:28.013Z,6.62
2018-06-17T19:23:08.768Z,7.12
2018-06-17T19:25:40.266Z,6.40
2018-06-17T19:28:11.645Z,5.75
2018-06-17T19:30:43.198Z,6.15
2018-06-17T19:33:15.196Z,5.58
2018-06-17T19:35:46.681Z,5.25
2018-06-17T19:38:18.454Z,6.47
2018-06-17T19:40:49.925Z,7.10
2018-06-17T19:43:21.506Z,7.95
2018-06-17T19:45:52.796Z,5.37
2018-06-17T19:48:24.126Z,5.15
2018-06-17T19:51:00.471Z,5.25
2018-06-17T19:53:36.244Z,5.47
2018-06-17T19:56:13.204Z,5.50
2018-06-17T19:58:49.459Z,5.83
2018-06-17T20:01:21.776Z,4.80
2018-06-17T20:03:53.145Z,4.65
2018-06-17T20:06:24.679Z,4.80
2018-06-17T20:08:56.106Z,4.72
2018-06-17T20:11:27.543Z,5.80
2018-06-17T20:14:00.069Z,5.80
2018-06-17T20:16:31.548Z,5.17
2018-06-17T20:19:03.172Z,5.40
2018-06-17T20:21:34.714Z,5.22
2018-06-17T20:24:05.672Z,5.78
2018-06-17T20:26:37.246Z,7.05
2018-06-17T20:29:08.655Z,4.95
2018-06-17T20:31:45.646Z,5.10
2018-06-17T20:34:22.328Z,5.00
2018-06-17T20:36:58.775Z,4.65
2018-06-17T20:39:35.345Z,5.40
2018-06-17T20:42:11.694Z,4.83
2018-06-17T20:44:43.139Z,5.97
2018-06-17T20:47:14.310Z,5.45
2018-06-17T20:49:45.035Z,4.83
2018-06-17T20:52:16.248Z,4.67
2018-06-17T20:54:47.699Z,4.62
2018-06-17T20:57:20.053Z,14.18
2018-06-17T20:59:51.246Z,6.05
2018-06-17T21:02:22.661Z,5.05
2018-06-17T21:04:53.973Z,4.85
2018-06-17T21:07:25.524Z,4.90
2018-06-17T21:09:56.968Z,5.12
2018-06-17T21:12:28.172Z,4.72
2018-06-17T21:15:03.839Z,4.90
2018-06-17T21:17:35.773Z,4.65
2018-06-17T21:20:12.497Z,4.55
2018-06-17T21:22:49.336Z,4.58
2018-06-17T21:25:25.729Z,4.65
2018-06-17T21:27:59.718Z,4.83
2018-06-17T21:30:31.511Z,4.83
2018-06-17T21:33:02.901Z,4.60
2018-06-17T21:35:34.375Z,4.60
2018-06-17T21:38:05.442Z,4.35
2018-06-17T21:40:37.235Z,4.47
2018-06-17T21:43:09.222Z,4.97
2018-06-17T21:45:40.782Z,5.37
2018-06-17T21:48:12.736Z,4.97
2018-06-17T21:50:44.489Z,5.15
2018-06-17T21:53:16.255Z,5.00
2018-06-17T21:55:47.770Z,5.10
2018-06-17T21:58:24.215Z,5.35
2018-06-17T22:00:55.524Z,5.40
2018-06-17T22:03:27.024Z,5.20
2018-06-17T22:05:58.433Z,5.10
2018-06-17T22:08:34.837Z,5.00
2018-06-17T22:11:11.099Z,5.12
2018-06-17T22:13:48.333Z,5.22
2018-06-17T22:16:24.238Z,5.20
2018-06-17T22:18:56.594Z,5.28
2018-06-17T22:21:27.743Z,5.42
2018-06-17T22:23:59.071Z,5.42
2018-06-17T22:26:30.251Z,4.95
2018-06-17T22:29:01.939Z,5.03
2018-06-17T22:31:33.411Z,5.30
2018-06-17T22:34:04.975Z,5.58
2018-06-17T22:36:36.419Z,5.33
2018-06-17T22:39:10.485Z,5.37
2018-06-17T22:41:42.076Z,5.90
2018-06-17T22:44:13.518Z,5.92
2018-06-17T22:46:45.171Z,5.53
2018-06-17T22:49:16.555Z,5.53
2018-06-17T22:51:48.048Z,4.75
2018-06-17T22:54:35.301Z,4.83
2018-06-17T22:57:12.095Z,4.70
2018-06-17T23:00:50.145Z,4.10
2018-06-17T23:03:26.388Z,3.80
2018-06-17T23:06:02.751Z,4.40
2018-06-17T23:08:38.967Z,4.37
2018-06-17T23:11:10.636Z,4.60
2018-06-17T23:13:42.016Z,4.80
2018-06-17T23:16:13.347Z,4.42
2018-06-17T23:18:45.187Z,4.05
2018-06-17T23:21:17.169Z,4.60
2018-06-17T23:23:49.010Z,4.35
2018-06-17T23:26:20.471Z,4.67
2018-06-17T23:28:54.233Z,4.72
2018-06-17T23:31:26.503Z,5.00
2018-06-17T23:33:59.084Z,5.10
2018-06-17T23:36:32.727Z,5.97
2018-06-17T23:39:05.226Z,5.28
2018-06-17T23:41:36.010Z,4.45
2018-06-17T23:44:07.149Z,5.30
2018-06-17T23:46:43.747Z,5.10
2018-06-17T23:49:19.851Z,4.90
2018-06-17T23:51:56.317Z,5.12
2018-06-17T23:54:32.145Z,5.42
2018-06-17T23:57:03.082Z,5.30
2018-06-17T23:59:34.717Z,5.40
